sensor_id;sensor_type;location;lat;lon;timestamp;pressure;altitude;pressure_sealevel;temperature;humidity
76730;BME280;65653;53.106;18.046;2023-12-07T00:01:31;101257.98;;;-2.96;100.00
76730;BME280;65653;53.106;18.046;2023-12-07T00:03:57;101260.77;;;-2.95;100.00
76730;BME280;65653;53.106;18.046;2023-12-07T00:06:23;101265.79;;;-2.95;100.00
76730;BME280;65653;53.106;18.046;2023-12-07T00:08:50;101266.15;;;-2.95;100.00
76730;BME280;65653;53.106;18.046;2023-12-07T00:11:16;101268.34;;;-2.95;100.00
76730;BME280;65653;53.106;18.046;2023-12-07T00:13:43;101266.93;;;-2.95;100.00
76730;BME280;65653;53.106;18.046;2023-12-07T00:16:09;101266.55;;;-2.95;100.00
76730;BME280;65653;53.106;18.046;2023-12-07T00:18:36;101263.27;;;-2.95;100.00
76730;BME280;65653;53.106;18.046;2023-12-07T00:21:03;101266.80;;;-2.94;100.00
76730;BME280;65653;53.106;18.046;2023-12-07T00:23:29;101266.95;;;-2.93;100.00
76730;BME280;65653;53.106;18.046;2023-12-07T00:25:56;101268.92;;;-2.93;100.00
76730;BME280;65653;53.106;18.046;2023-12-07T00:28:22;101267.27;;;-2.92;100.00
76730;BME280;65653;53.106;18.046;2023-12-07T00:30:49;101267.66;;;-2.93;100.00
76730;BME280;65653;53.106;18.046;2023-12-07T00:33:15;101268.92;;;-2.93;100.00
76730;BME280;65653;53.106;18.046;2023-12-07T00:35:43;101271.30;;;-2.93;100.00
76730;BME280;65653;53.106;18.046;2023-12-07T00:38:10;101270.22;;;-2.93;100.00
76730;BME280;65653;53.106;18.046;2023-12-07T00:40:37;101272.02;;;-2.93;100.00
76730;BME280;65653;53.106;18.046;2023-12-07T00:43:06;101271.66;;;-2.93;100.00
76730;BME280;65653;53.106;18.046;2023-12-07T00:45:33;101270.22;;;-2.93;100.00
76730;BME280;65653;53.106;18.046;2023-12-07T00:48:00;101278.34;;;-2.93;100.00
76730;BME280;65653;53.106;18.046;2023-12-07T00:50:26;101273.41;;;-2.92;100.00
76730;BME280;65653;53.106;18.046;2023-12-07T00:52:53;101279.98;;;-2.93;100.00
76730;BME280;65653;53.106;18.046;2023-12-07T00:55:19;101278.87;;;-2.93;100.00
76730;BME280;65653;53.106;18.046;2023-12-07T00:57:45;101279.18;;;-2.92;100.00
76730;BME280;65653;53.106;18.046;2023-12-07T01:00:13;101282.38;;;-2.92;100.00
76730;BME280;65653;53.106;18.046;2023-12-07T01:02:39;101287.27;;;-2.92;100.00
76730;BME280;65653;53.106;18.046;2023-12-07T01:05:06;101285.83;;;-2.92;100.00
76730;BME280;65653;53.106;18.046;2023-12-07T01:07:33;101286.02;;;-2.92;100.00
76730;BME280;65653;53.106;18.046;2023-12-07T01:09:59;101287.40;;;-2.91;100.00
76730;BME280;65653;53.106;18.046;2023-12-07T01:12:26;101290.99;;;-2.91;100.00
76730;BME280;65653;53.106;18.046;2023-12-07T01:14:52;101294.23;;;-2.90;100.00
76730;BME280;65653;53.106;18.046;2023-12-07T01:17:19;101299.42;;;-2.90;100.00
76730;BME280;65653;53.106;18.046;2023-12-07T01:19:45;101300.19;;;-2.90;100.00
76730;BME280;65653;53.106;18.046;2023-12-07T01:22:12;101296.52;;;-2.90;100.00
76730;BME280;65653;53.106;18.046;2023-12-07T01:24:39;101295.63;;;-2.90;100.00
76730;BME280;65653;53.106;18.046;2023-12-07T01:27:05;101299.90;;;-2.89;100.00
76730;BME280;65653;53.106;18.046;2023-12-07T01:29:32;101299.47;;;-2.88;100.00
76730;BME280;65653;53.106;18.046;2023-12-07T01:31:59;101301.10;;;-2.88;100.00
76730;BME280;65653;53.106;18.046;2023-12-07T01:34:25;101300.58;;;-2.88;100.00
76730;BME280;65653;53.106;18.046;2023-12-07T01:36:51;101298.86;;;-2.87;100.00
76730;BME280;65653;53.106;18.046;2023-12-07T01:39:18;101292.58;;;-2.87;100.00
76730;BME280;65653;53.106;18.046;2023-12-07T01:41:45;101296.02;;;-2.87;100.00
76730;BME280;65653;53.106;18.046;2023-12-07T01:44:11;101294.63;;;-2.88;100.00
76730;BME280;65653;53.106;18.046;2023-12-07T01:46:38;101297.61;;;-2.87;100.00
76730;BME280;65653;53.106;18.046;2023-12-07T01:49:04;101298.76;;;-2.88;100.00
76730;BME280;65653;53.106;18.046;2023-12-07T01:51:31;101300.16;;;-2.87;100.00
76730;BME280;65653;53.106;18.046;2023-12-07T01:53:58;101300.14;;;-2.87;100.00
76730;BME280;65653;53.106;18.046;2023-12-07T01:56:26;101298.36;;;-2.87;100.00
76730;BME280;65653;53.106;18.046;2023-12-07T01:58:52;101300.89;;;-2.87;100.00
76730;BME280;65653;53.106;18.046;2023-12-07T02:01:21;101303.14;;;-2.86;100.00
76730;BME280;65653;53.106;18.046;2023-12-07T02:03:47;101304.78;;;-2.86;100.00
76730;BME280;65653;53.106;18.046;2023-12-07T02:06:14;101302.95;;;-2.86;100.00
76730;BME280;65653;53.106;18.046;2023-12-07T02:08:41;101300.75;;;-2.85;100.00
76730;BME280;65653;53.106;18.046;2023-12-07T02:11:09;101304.39;;;-2.86;100.00
76730;BME280;65653;53.106;18.046;2023-12-07T02:13:37;101304.05;;;-2.86;100.00
76730;BME280;65653;53.106;18.046;2023-12-07T02:16:15;101302.20;;;-2.85;100.00
76730;BME280;65653;53.106;18.046;2023-12-07T02:18:51;101302.02;;;-2.85;100.00
76730;BME280;65653;53.106;18.046;2023-12-07T02:21:26;101302.18;;;-2.85;100.00
76730;BME280;65653;53.106;18.046;2023-12-07T02:23:57;101299.27;;;-2.85;100.00
76730;BME280;65653;53.106;18.046;2023-12-07T02:26:34;101303.39;;;-2.84;100.00
76730;BME280;65653;53.106;18.046;2023-12-07T02:29:00;101303.02;;;-2.84;100.00
76730;BME280;65653;53.106;18.046;2023-12-07T02:31:27;101304.45;;;-2.84;100.00
76730;BME280;65653;53.106;18.046;2023-12-07T02:33:54;101309.66;;;-2.83;100.00
76730;BME280;65653;53.106;18.046;2023-12-07T02:36:24;101308.58;;;-2.83;100.00
76730;BME280;65653;53.106;18.046;2023-12-07T02:38:56;101312.61;;;-2.84;100.00
76730;BME280;65653;53.106;18.046;2023-12-07T02:41:25;101313.32;;;-2.84;100.00
76730;BME280;65653;53.106;18.046;2023-12-07T02:43:53;101310.68;;;-2.85;100.00
76730;BME280;65653;53.106;18.046;2023-12-07T02:46:20;101305.36;;;-2.87;100.00
76730;BME280;65653;53.106;18.046;2023-12-07T02:48:47;101306.91;;;-2.88;100.00
76730;BME280;65653;53.106;18.046;2023-12-07T02:51:13;101310.74;;;-2.89;100.00
76730;BME280;65653;53.106;18.046;2023-12-07T02:53:40;101310.80;;;-2.90;100.00
76730;BME280;65653;53.106;18.046;2023-12-07T02:56:07;101312.16;;;-2.91;100.00
76730;BME280;65653;53.106;18.046;2023-12-07T02:58:33;101316.35;;;-2.92;100.00
76730;BME280;65653;53.106;18.046;2023-12-07T03:01:00;101315.05;;;-2.94;100.00
76730;BME280;65653;53.106;18.046;2023-12-07T03:03:26;101318.49;;;-2.97;100.00
76730;BME280;65653;53.106;18.046;2023-12-07T03:05:53;101320.70;;;-2.97;100.00
76730;BME280;65653;53.106;18.046;2023-12-07T03:08:19;101322.36;;;-2.98;100.00
76730;BME280;65653;53.106;18.046;2023-12-07T03:10:46;101319.36;;;-2.99;100.00
76730;BME280;65653;53.106;18.046;2023-12-07T03:13:12;101323.24;;;-3.00;100.00
76730;BME280;65653;53.106;18.046;2023-12-07T03:15:38;101323.56;;;-3.02;100.00
76730;BME280;65653;53.106;18.046;2023-12-07T03:18:05;101322.43;;;-3.04;100.00
76730;BME280;65653;53.106;18.046;2023-12-07T03:20:31;101328.89;;;-3.06;100.00
76730;BME280;65653;53.106;18.046;2023-12-07T03:22:58;101324.61;;;-3.09;100.00
76730;BME280;65653;53.106;18.046;2023-12-07T03:25:24;101324.03;;;-3.11;100.00
76730;BME280;65653;53.106;18.046;2023-12-07T03:27:51;101319.90;;;-3.14;100.00
76730;BME280;65653;53.106;18.046;2023-12-07T03:30:18;101316.15;;;-3.17;100.00
76730;BME280;65653;53.106;18.046;2023-12-07T03:32:44;101318.88;;;-3.20;100.00
76730;BME280;65653;53.106;18.046;2023-12-07T03:35:11;101318.47;;;-3.22;100.00
76730;BME280;65653;53.106;18.046;2023-12-07T03:37:37;101318.73;;;-3.24;100.00
76730;BME280;65653;53.106;18.046;2023-12-07T03:40:04;101316.66;;;-3.25;100.00
76730;BME280;65653;53.106;18.046;2023-12-07T03:42:31;101312.62;;;-3.26;100.00
76730;BME280;65653;53.106;18.046;2023-12-07T03:44:58;101317.58;;;-3.28;100.00
76730;BME280;65653;53.106;18.046;2023-12-07T03:47:24;101318.81;;;-3.30;100.00
76730;BME280;65653;53.106;18.046;2023-12-07T03:49:51;101324.27;;;-3.30;100.00
76730;BME280;65653;53.106;18.046;2023-12-07T03:52:17;101324.09;;;-3.31;100.00
76730;BME280;65653;53.106;18.046;2023-12-07T03:54:44;101326.80;;;-3.31;100.00
76730;BME280;65653;53.106;18.046;2023-12-07T03:57:10;101324.45;;;-3.33;100.00
76730;BME280;65653;53.106;18.046;2023-12-07T03:59:36;101327.18;;;-3.33;100.00
76730;BME280;65653;53.106;18.046;2023-12-07T04:02:03;101330.83;;;-3.34;100.00
76730;BME280;65653;53.106;18.046;2023-12-07T04:04:30;101336.86;;;-3.35;100.00
76730;BME280;65653;53.106;18.046;2023-12-07T04:06:57;101334.00;;;-3.36;100.00
76730;BME280;65653;53.106;18.046;2023-12-07T04:09:23;101338.90;;;-3.36;100.00
76730;BME280;65653;53.106;18.046;2023-12-07T04:11:50;101342.36;;;-3.36;100.00
76730;BME280;65653;53.106;18.046;2023-12-07T04:14:16;101344.48;;;-3.36;100.00
76730;BME280;65653;53.106;18.046;2023-12-07T04:16:42;101345.69;;;-3.35;100.00
76730;BME280;65653;53.106;18.046;2023-12-07T04:19:09;101348.50;;;-3.33;100.00
76730;BME280;65653;53.106;18.046;2023-12-07T04:21:35;101348.85;;;-3.31;100.00
76730;BME280;65653;53.106;18.046;2023-12-07T04:24:02;101346.02;;;-3.29;100.00
76730;BME280;65653;53.106;18.046;2023-12-07T04:26:28;101352.09;;;-3.28;100.00
76730;BME280;65653;53.106;18.046;2023-12-07T04:28:55;101354.32;;;-3.26;100.00
76730;BME280;65653;53.106;18.046;2023-12-07T04:31:21;101357.67;;;-3.25;100.00
76730;BME280;65653;53.106;18.046;2023-12-07T04:33:47;101360.09;;;-3.23;100.00
76730;BME280;65653;53.106;18.046;2023-12-07T04:36:14;101368.13;;;-3.22;100.00
76730;BME280;65653;53.106;18.046;2023-12-07T04:38:40;101371.76;;;-3.20;100.00
76730;BME280;65653;53.106;18.046;2023-12-07T04:41:07;101370.86;;;-3.17;100.00
76730;BME280;65653;53.106;18.046;2023-12-07T04:43:33;101368.14;;;-3.14;100.00
76730;BME280;65653;53.106;18.046;2023-12-07T04:46:00;101365.95;;;-3.14;100.00
76730;BME280;65653;53.106;18.046;2023-12-07T04:48:26;101366.59;;;-3.13;100.00
76730;BME280;65653;53.106;18.046;2023-12-07T04:50:53;101364.38;;;-3.12;100.00
76730;BME280;65653;53.106;18.046;2023-12-07T04:53:19;101359.45;;;-3.12;100.00
76730;BME280;65653;53.106;18.046;2023-12-07T04:55:46;101360.61;;;-3.10;100.00
76730;BME280;65653;53.106;18.046;2023-12-07T04:58:16;101359.29;;;-3.09;100.00
76730;BME280;65653;53.106;18.046;2023-12-07T05:00:42;101358.27;;;-3.08;100.00
76730;BME280;65653;53.106;18.046;2023-12-07T05:03:09;101356.52;;;-3.06;100.00
76730;BME280;65653;53.106;18.046;2023-12-07T05:05:35;101360.80;;;-3.05;100.00
76730;BME280;65653;53.106;18.046;2023-12-07T05:08:02;101357.44;;;-3.03;100.00
76730;BME280;65653;53.106;18.046;2023-12-07T05:10:29;101363.41;;;-3.01;100.00
76730;BME280;65653;53.106;18.046;2023-12-07T05:12:55;101366.14;;;-2.98;100.00
76730;BME280;65653;53.106;18.046;2023-12-07T05:15:23;101370.85;;;-2.96;100.00
76730;BME280;65653;53.106;18.046;2023-12-07T05:17:51;101370.48;;;-2.94;100.00
76730;BME280;65653;53.106;18.046;2023-12-07T05:20:17;101373.61;;;-2.91;100.00
76730;BME280;65653;53.106;18.046;2023-12-07T05:22:48;101377.21;;;-2.89;100.00
76730;BME280;65653;53.106;18.046;2023-12-07T05:25:15;101374.72;;;-2.86;100.00
76730;BME280;65653;53.106;18.046;2023-12-07T05:27:41;101372.08;;;-2.85;100.00
76730;BME280;65653;53.106;18.046;2023-12-07T05:30:08;101370.82;;;-2.82;100.00
76730;BME280;65653;53.106;18.046;2023-12-07T05:32:35;101372.84;;;-2.80;100.00
76730;BME280;65653;53.106;18.046;2023-12-07T05:35:02;101377.24;;;-2.78;100.00
76730;BME280;65653;53.106;18.046;2023-12-07T05:37:28;101377.14;;;-2.77;100.00
76730;BME280;65653;53.106;18.046;2023-12-07T05:39:55;101378.25;;;-2.74;100.00
76730;BME280;65653;53.106;18.046;2023-12-07T05:42:22;101381.54;;;-2.72;100.00
76730;BME280;65653;53.106;18.046;2023-12-07T05:44:50;101382.83;;;-2.71;100.00
76730;BME280;65653;53.106;18.046;2023-12-07T05:47:16;101382.77;;;-2.69;100.00
76730;BME280;65653;53.106;18.046;2023-12-07T05:49:43;101382.98;;;-2.68;100.00
76730;BME280;65653;53.106;18.046;2023-12-07T05:52:09;101380.86;;;-2.65;100.00
76730;BME280;65653;53.106;18.046;2023-12-07T05:54:36;101379.52;;;-2.64;100.00
76730;BME280;65653;53.106;18.046;2023-12-07T05:57:02;101380.44;;;-2.62;100.00
76730;BME280;65653;53.106;18.046;2023-12-07T05:59:29;101378.77;;;-2.62;100.00
76730;BME280;65653;53.106;18.046;2023-12-07T06:01:55;101382.11;;;-2.60;100.00
76730;BME280;65653;53.106;18.046;2023-12-07T06:04:22;101384.52;;;-2.58;100.00
76730;BME280;65653;53.106;18.046;2023-12-07T06:06:48;101387.73;;;-2.55;100.00
76730;BME280;65653;53.106;18.046;2023-12-07T06:09:15;101387.86;;;-2.54;100.00
76730;BME280;65653;53.106;18.046;2023-12-07T06:11:42;101386.89;;;-2.53;100.00
76730;BME280;65653;53.106;18.046;2023-12-07T06:14:08;101392.06;;;-2.52;100.00
76730;BME280;65653;53.106;18.046;2023-12-07T06:16:34;101392.95;;;-2.50;100.00
76730;BME280;65653;53.106;18.046;2023-12-07T06:19:01;101396.98;;;-2.48;100.00
76730;BME280;65653;53.106;18.046;2023-12-07T06:21:28;101402.50;;;-2.47;100.00
76730;BME280;65653;53.106;18.046;2023-12-07T06:23:56;101408.02;;;-2.46;100.00
76730;BME280;65653;53.106;18.046;2023-12-07T06:26:25;101415.05;;;-2.45;100.00
76730;BME280;65653;53.106;18.046;2023-12-07T06:28:51;101416.20;;;-2.43;100.00
76730;BME280;65653;53.106;18.046;2023-12-07T06:31:17;101422.80;;;-2.42;100.00
76730;BME280;65653;53.106;18.046;2023-12-07T06:33:47;101429.05;;;-2.41;100.00
76730;BME280;65653;53.106;18.046;2023-12-07T06:36:21;101431.05;;;-2.41;100.00
76730;BME280;65653;53.106;18.046;2023-12-07T06:38:48;101432.40;;;-2.40;100.00
76730;BME280;65653;53.106;18.046;2023-12-07T06:41:14;101432.52;;;-2.39;100.00
76730;BME280;65653;53.106;18.046;2023-12-07T06:43:42;101433.55;;;-2.38;100.00
76730;BME280;65653;53.106;18.046;2023-12-07T06:46:11;101433.26;;;-2.37;100.00
76730;BME280;65653;53.106;18.046;2023-12-07T06:48:40;101436.95;;;-2.35;100.00
76730;BME280;65653;53.106;18.046;2023-12-07T06:51:07;101435.98;;;-2.34;100.00
76730;BME280;65653;53.106;18.046;2023-12-07T06:53:33;101440.27;;;-2.31;100.00
76730;BME280;65653;53.106;18.046;2023-12-07T06:56:00;101436.55;;;-2.29;100.00
76730;BME280;65653;53.106;18.046;2023-12-07T06:58:27;101435.89;;;-2.28;100.00
76730;BME280;65653;53.106;18.046;2023-12-07T07:00:53;101436.50;;;-2.26;100.00
76730;BME280;65653;53.106;18.046;2023-12-07T07:03:20;101438.64;;;-2.23;100.00
76730;BME280;65653;53.106;18.046;2023-12-07T07:05:46;101439.75;;;-2.21;100.00
76730;BME280;65653;53.106;18.046;2023-12-07T07:08:13;101442.85;;;-2.19;100.00
76730;BME280;65653;53.106;18.046;2023-12-07T07:10:39;101445.25;;;-2.16;100.00
76730;BME280;65653;53.106;18.046;2023-12-07T07:13:06;101440.23;;;-2.15;100.00
76730;BME280;65653;53.106;18.046;2023-12-07T07:15:32;101443.92;;;-2.13;100.00
76730;BME280;65653;53.106;18.046;2023-12-07T07:17:59;101443.76;;;-2.10;100.00
76730;BME280;65653;53.106;18.046;2023-12-07T07:20:26;101442.52;;;-2.08;100.00
76730;BME280;65653;53.106;18.046;2023-12-07T07:22:52;101440.63;;;-2.05;100.00
76730;BME280;65653;53.106;18.046;2023-12-07T07:25:18;101441.88;;;-1.99;100.00
76730;BME280;65653;53.106;18.046;2023-12-07T07:27:46;101445.79;;;-1.93;100.00
76730;BME280;65653;53.106;18.046;2023-12-07T07:30:12;101441.45;;;-1.89;100.00
76730;BME280;65653;53.106;18.046;2023-12-07T07:32:40;101441.02;;;-1.83;100.00
76730;BME280;65653;53.106;18.046;2023-12-07T07:35:07;101438.86;;;-1.75;100.00
76730;BME280;65653;53.106;18.046;2023-12-07T07:37:34;101436.99;;;-1.69;100.00
76730;BME280;65653;53.106;18.046;2023-12-07T07:40:00;101439.31;;;-1.64;100.00
76730;BME280;65653;53.106;18.046;2023-12-07T07:42:27;101446.90;;;-1.59;100.00
76730;BME280;65653;53.106;18.046;2023-12-07T07:44:53;101447.48;;;-1.54;100.00
76730;BME280;65653;53.106;18.046;2023-12-07T07:47:19;101449.09;;;-1.49;100.00
76730;BME280;65653;53.106;18.046;2023-12-07T07:49:46;101451.67;;;-1.42;100.00
76730;BME280;65653;53.106;18.046;2023-12-07T07:52:12;101449.64;;;-1.37;100.00
76730;BME280;65653;53.106;18.046;2023-12-07T07:54:39;101453.20;;;-1.31;100.00
76730;BME280;65653;53.106;18.046;2023-12-07T07:57:05;101450.15;;;-1.26;100.00
76730;BME280;65653;53.106;18.046;2023-12-07T07:59:32;101446.32;;;-1.23;100.00
76730;BME280;65653;53.106;18.046;2023-12-07T08:01:58;101455.43;;;-1.19;100.00
76730;BME280;65653;53.106;18.046;2023-12-07T08:04:25;101457.64;;;-1.01;100.00
76730;BME280;65653;53.106;18.046;2023-12-07T08:06:51;101459.77;;;-0.90;100.00
76730;BME280;65653;53.106;18.046;2023-12-07T08:09:18;101457.89;;;-0.82;100.00
76730;BME280;65653;53.106;18.046;2023-12-07T08:11:44;101455.67;;;-0.77;99.99
76730;BME280;65653;53.106;18.046;2023-12-07T08:14:11;101449.88;;;-0.79;99.52
76730;BME280;65653;53.106;18.046;2023-12-07T08:16:37;101451.95;;;-0.80;99.32
76730;BME280;65653;53.106;18.046;2023-12-07T08:19:04;101447.54;;;-0.84;98.86
76730;BME280;65653;53.106;18.046;2023-12-07T08:21:30;101445.63;;;-0.83;99.29
76730;BME280;65653;53.106;18.046;2023-12-07T08:23:57;101448.45;;;-0.80;99.13
76730;BME280;65653;53.106;18.046;2023-12-07T08:26:23;101448.90;;;-0.76;99.08
76730;BME280;65653;53.106;18.046;2023-12-07T08:28:50;101446.67;;;-0.76;98.92
76730;BME280;65653;53.106;18.046;2023-12-07T08:31:20;101444.80;;;-0.65;99.27
76730;BME280;65653;53.106;18.046;2023-12-07T08:33:46;101444.50;;;-0.66;98.55
76730;BME280;65653;53.106;18.046;2023-12-07T08:36:13;101448.94;;;-0.69;98.69
76730;BME280;65653;53.106;18.046;2023-12-07T08:38:39;101451.82;;;-0.72;98.99
76730;BME280;65653;53.106;18.046;2023-12-07T08:41:06;101457.95;;;-0.74;98.86
76730;BME280;65653;53.106;18.046;2023-12-07T08:43:32;101457.08;;;-0.74;98.91
76730;BME280;65653;53.106;18.046;2023-12-07T08:45:58;101461.77;;;-0.74;98.91
76730;BME280;65653;53.106;18.046;2023-12-07T08:48:25;101467.80;;;-0.74;98.80
76730;BME280;65653;53.106;18.046;2023-12-07T08:50:51;101467.95;;;-0.76;99.17
76730;BME280;65653;53.106;18.046;2023-12-07T08:53:18;101471.15;;;-0.73;99.31
76730;BME280;65653;53.106;18.046;2023-12-07T08:55:44;101472.72;;;-0.70;99.08
76730;BME280;65653;53.106;18.046;2023-12-07T08:58:11;101476.14;;;-0.69;98.85
76730;BME280;65653;53.106;18.046;2023-12-07T09:00:37;101471.35;;;-0.57;99.63
76730;BME280;65653;53.106;18.046;2023-12-07T09:03:04;101470.86;;;-0.55;98.46
76730;BME280;65653;53.106;18.046;2023-12-07T09:05:31;101472.33;;;-0.55;98.38
76730;BME280;65653;53.106;18.046;2023-12-07T09:07:58;101470.71;;;-0.53;98.40
76730;BME280;65653;53.106;18.046;2023-12-07T09:10:24;101473.08;;;-0.51;98.12
76730;BME280;65653;53.106;18.046;2023-12-07T09:12:51;101474.70;;;-0.51;97.88
76730;BME280;65653;53.106;18.046;2023-12-07T09:15:17;101479.71;;;-0.49;98.34
76730;BME280;65653;53.106;18.046;2023-12-07T09:17:45;101482.16;;;-0.46;98.43
76730;BME280;65653;53.106;18.046;2023-12-07T09:20:11;101480.55;;;-0.41;98.61
76730;BME280;65653;53.106;18.046;2023-12-07T09:22:41;101480.88;;;-0.41;98.21
76730;BME280;65653;53.106;18.046;2023-12-07T09:25:09;101481.17;;;-0.43;97.80
76730;BME280;65653;53.106;18.046;2023-12-07T09:27:37;101482.52;;;-0.42;97.99
76730;BME280;65653;53.106;18.046;2023-12-07T09:30:08;101485.89;;;-0.38;97.81
76730;BME280;65653;53.106;18.046;2023-12-07T09:32:38;101483.72;;;-0.36;98.02
76730;BME280;65653;53.106;18.046;2023-12-07T09:35:05;101480.64;;;-0.31;98.05
76730;BME280;65653;53.106;18.046;2023-12-07T09:37:46;101481.15;;;-0.28;97.51
76730;BME280;65653;53.106;18.046;2023-12-07T09:40:22;101476.42;;;-0.24;97.59
76730;BME280;65653;53.106;18.046;2023-12-07T09:42:50;101474.33;;;-0.20;97.47
76730;BME280;65653;53.106;18.046;2023-12-07T09:45:17;101472.45;;;-0.17;97.05
76730;BME280;65653;53.106;18.046;2023-12-07T09:47:50;101469.56;;;-0.15;97.08
76730;BME280;65653;53.106;18.046;2023-12-07T09:50:18;101466.23;;;-0.12;97.09
76730;BME280;65653;53.106;18.046;2023-12-07T09:52:52;101461.77;;;-0.10;96.61
76730;BME280;65653;53.106;18.046;2023-12-07T09:55:19;101460.90;;;-0.09;96.63
76730;BME280;65653;53.106;18.046;2023-12-07T09:57:46;101465.13;;;-0.07;96.86
76730;BME280;65653;53.106;18.046;2023-12-07T10:00:13;101469.45;;;-0.04;97.22
76730;BME280;65653;53.106;18.046;2023-12-07T10:02:45;101465.95;;;0.04;97.52
76730;BME280;65653;53.106;18.046;2023-12-07T10:05:13;101468.56;;;0.14;97.28
76730;BME280;65653;53.106;18.046;2023-12-07T10:07:41;101474.73;;;0.14;96.72
76730;BME280;65653;53.106;18.046;2023-12-07T10:10:08;101468.61;;;0.16;96.97
76730;BME280;65653;53.106;18.046;2023-12-07T10:12:47;101472.64;;;0.11;96.38
76730;BME280;65653;53.106;18.046;2023-12-07T10:15:15;101473.54;;;0.11;96.84
76730;BME280;65653;53.106;18.046;2023-12-07T10:17:53;101471.55;;;0.09;96.45
76730;BME280;65653;53.106;18.046;2023-12-07T10:20:25;101472.52;;;0.08;96.69
76730;BME280;65653;53.106;18.046;2023-12-07T10:23:05;101470.44;;;0.13;96.80
76730;BME280;65653;53.106;18.046;2023-12-07T10:25:41;101463.50;;;0.12;96.39
76730;BME280;65653;53.106;18.046;2023-12-07T10:28:09;101466.25;;;0.13;96.10
76730;BME280;65653;53.106;18.046;2023-12-07T10:30:41;101467.85;;;0.16;96.40
76730;BME280;65653;53.106;18.046;2023-12-07T10:33:10;101468.52;;;0.19;96.13
76730;BME280;65653;53.106;18.046;2023-12-07T10:35:39;101468.67;;;0.20;95.61
76730;BME280;65653;53.106;18.046;2023-12-07T10:38:07;101465.58;;;0.20;95.74
76730;BME280;65653;53.106;18.046;2023-12-07T10:40:34;101460.25;;;0.18;95.64
76730;BME280;65653;53.106;18.046;2023-12-07T10:43:04;101458.22;;;0.21;95.65
76730;BME280;65653;53.106;18.046;2023-12-07T10:45:32;101458.11;;;0.27;95.88
76730;BME280;65653;53.106;18.046;2023-12-07T10:48:09;101458.52;;;0.31;96.06
76730;BME280;65653;53.106;18.046;2023-12-07T10:50:37;101459.22;;;0.33;95.15
76730;BME280;65653;53.106;18.046;2023-12-07T10:53:16;101458.08;;;0.36;95.53
76730;BME280;65653;53.106;18.046;2023-12-07T10:55:47;101456.52;;;0.46;95.63
76730;BME280;65653;53.106;18.046;2023-12-07T10:58:19;101459.98;;;0.46;95.41
76730;BME280;65653;53.106;18.046;2023-12-07T11:00:49;101460.35;;;0.42;94.92
76730;BME280;65653;53.106;18.046;2023-12-07T11:03:16;101459.88;;;0.39;95.22
76730;BME280;65653;53.106;18.046;2023-12-07T11:05:48;101457.34;;;0.41;95.31
76730;BME280;65653;53.106;18.046;2023-12-07T11:08:55;101454.25;;;0.43;95.37
76730;BME280;65653;53.106;18.046;2023-12-07T11:11:39;101456.11;;;0.45;95.10
76730;BME280;65653;53.106;18.046;2023-12-07T11:14:09;101457.01;;;0.45;94.80
76730;BME280;65653;53.106;18.046;2023-12-07T11:16:44;101454.05;;;0.48;95.06
76730;BME280;65653;53.106;18.046;2023-12-07T11:21:59;101450.37;;;0.53;94.42
76730;BME280;65653;53.106;18.046;2023-12-07T11:24:26;101448.80;;;0.54;94.53
76730;BME280;65653;53.106;18.046;2023-12-07T11:26:53;101447.21;;;0.58;94.66
76730;BME280;65653;53.106;18.046;2023-12-07T11:29:21;101447.63;;;0.62;94.55
76730;BME280;65653;53.106;18.046;2023-12-07T11:31:49;101446.52;;;0.62;94.29
76730;BME280;65653;53.106;18.046;2023-12-07T11:34:38;101443.65;;;0.64;94.44
76730;BME280;65653;53.106;18.046;2023-12-07T11:37:09;101440.52;;;0.67;94.65
76730;BME280;65653;53.106;18.046;2023-12-07T11:39:37;101438.13;;;0.71;94.55
76730;BME280;65653;53.106;18.046;2023-12-07T11:42:16;101439.30;;;0.70;94.38
76730;BME280;65653;53.106;18.046;2023-12-07T11:44:47;101438.39;;;0.72;94.91
76730;BME280;65653;53.106;18.046;2023-12-07T11:47:19;101435.25;;;0.71;94.17
76730;BME280;65653;53.106;18.046;2023-12-07T11:49:50;101433.45;;;0.66;94.52
76730;BME280;65653;53.106;18.046;2023-12-07T11:52:18;101442.23;;;0.68;95.22
76730;BME280;65653;53.106;18.046;2023-12-07T11:54:49;101437.70;;;0.67;95.06
76730;BME280;65653;53.106;18.046;2023-12-07T11:57:17;101441.02;;;0.65;94.98
76730;BME280;65653;53.106;18.046;2023-12-07T11:59:44;101437.48;;;0.61;94.90
76730;BME280;65653;53.106;18.046;2023-12-07T12:02:12;101432.13;;;0.58;94.57
76730;BME280;65653;53.106;18.046;2023-12-07T12:04:40;101430.45;;;0.54;94.99
76730;BME280;65653;53.106;18.046;2023-12-07T12:07:07;101429.29;;;0.53;95.01
76730;BME280;65653;53.106;18.046;2023-12-07T12:09:34;101432.08;;;0.50;94.99
76730;BME280;65653;53.106;18.046;2023-12-07T12:12:01;101430.50;;;0.49;95.09
76730;BME280;65653;53.106;18.046;2023-12-07T12:14:28;101428.08;;;0.48;95.21
76730;BME280;65653;53.106;18.046;2023-12-07T12:16:55;101424.55;;;0.48;95.47
76730;BME280;65653;53.106;18.046;2023-12-07T12:19:22;101423.90;;;0.50;95.61
76730;BME280;65653;53.106;18.046;2023-12-07T12:21:50;101423.86;;;0.50;95.62
76730;BME280;65653;53.106;18.046;2023-12-07T12:24:16;101423.95;;;0.52;95.87
76730;BME280;65653;53.106;18.046;2023-12-07T12:26:43;101428.30;;;0.49;95.70
76730;BME280;65653;53.106;18.046;2023-12-07T12:29:10;101426.64;;;0.47;95.49
76730;BME280;65653;53.106;18.046;2023-12-07T12:31:38;101421.52;;;0.44;95.60
76730;BME280;65653;53.106;18.046;2023-12-07T12:34:08;101416.95;;;0.42;95.89
76730;BME280;65653;53.106;18.046;2023-12-07T12:36:36;101417.66;;;0.44;96.02
76730;BME280;65653;53.106;18.046;2023-12-07T12:39:02;101416.98;;;0.43;96.08
76730;BME280;65653;53.106;18.046;2023-12-07T12:41:31;101418.46;;;0.43;96.27